sensor_id;sensor_type;location;lat;lon;timestamp;P1;durP1;ratioP1;P2;durP2;ratioP2
18532;SDS011;9396;51.510;11.934;2023-04-25T00:00:47;5.83;;;3.83;;
18532;SDS011;9396;51.510;11.934;2023-04-25T00:03:15;4.40;;;3.30;;
18532;SDS011;9396;51.510;11.934;2023-04-25T00:05:43;7.20;;;3.87;;
18532;SDS011;9396;51.510;11.934;2023-04-25T00:08:10;4.57;;;3.47;;
18532;SDS011;9396;51.510;11.934;2023-04-25T00:10:38;5.03;;;3.70;;
18532;SDS011;9396;51.510;11.934;2023-04-25T00:13:04;4.80;;;3.77;;
18532;SDS011;9396;51.510;11.934;2023-04-25T00:15:33;5.13;;;3.93;;
18532;SDS011;9396;51.510;11.934;2023-04-25T00:18:01;8.27;;;3.57;;
18532;SDS011;9396;51.510;11.934;2023-04-25T00:20:27;6.90;;;4.20;;
18532;SDS011;9396;51.510;11.934;2023-04-25T00:22:55;6.00;;;4.20;;
18532;SDS011;9396;51.510;11.934;2023-04-25T00:25:21;5.57;;;4.40;;
18532;SDS011;9396;51.510;11.934;2023-04-25T00:27:49;8.30;;;4.30;;
18532;SDS011;9396;51.510;11.934;2023-04-25T00:30:16;5.73;;;3.90;;
18532;SDS011;9396;51.510;11.934;2023-04-25T00:32:43;4.90;;;3.90;;
18532;SDS011;9396;51.510;11.934;2023-04-25T00:35:09;5.73;;;4.07;;
18532;SDS011;9396;51.510;11.934;2023-04-25T00:37:36;6.10;;;3.87;;
18532;SDS011;9396;51.510;11.934;2023-04-25T00:40:04;7.20;;;4.07;;
18532;SDS011;9396;51.510;11.934;2023-04-25T00:42:32;5.50;;;4.03;;
18532;SDS011;9396;51.510;11.934;2023-04-25T00:45:02;5.30;;;4.13;;
18532;SDS011;9396;51.510;11.934;2023-04-25T00:47:31;4.17;;;3.37;;
18532;SDS011;9396;51.510;11.934;2023-04-25T00:49:59;5.70;;;3.73;;
18532;SDS011;9396;51.510;11.934;2023-04-25T00:52:26;6.33;;;4.13;;
18532;SDS011;9396;51.510;11.934;2023-04-25T00:54:52;5.40;;;4.10;;
18532;SDS011;9396;51.510;11.934;2023-04-25T00:57:19;4.97;;;3.90;;
18532;SDS011;9396;51.510;11.934;2023-04-25T00:59:46;4.03;;;3.43;;
18532;SDS011;9396;51.510;11.934;2023-04-25T01:02:14;6.03;;;3.60;;
18532;SDS011;9396;51.510;11.934;2023-04-25T01:04:40;5.27;;;3.60;;
18532;SDS011;9396;51.510;11.934;2023-04-25T01:07:07;6.50;;;3.70;;
18532;SDS011;9396;51.510;11.934;2023-04-25T01:09:35;5.00;;;3.70;;
18532;SDS011;9396;51.510;11.934;2023-04-25T01:12:01;5.20;;;3.80;;
18532;SDS011;9396;51.510;11.934;2023-04-25T01:14:28;4.43;;;3.63;;
18532;SDS011;9396;51.510;11.934;2023-04-25T01:16:55;5.60;;;3.57;;
18532;SDS011;9396;51.510;11.934;2023-04-25T01:19:23;6.17;;;3.60;;
18532;SDS011;9396;51.510;11.934;2023-04-25T01:21:52;5.83;;;3.57;;
18532;SDS011;9396;51.510;11.934;2023-04-25T01:24:18;4.77;;;3.50;;
18532;SDS011;9396;51.510;11.934;2023-04-25T01:26:45;5.90;;;4.13;;
18532;SDS011;9396;51.510;11.934;2023-04-25T01:29:14;7.03;;;3.87;;
18532;SDS011;9396;51.510;11.934;2023-04-25T01:31:42;6.90;;;4.10;;
18532;SDS011;9396;51.510;11.934;2023-04-25T01:34:10;5.30;;;4.00;;
18532;SDS011;9396;51.510;11.934;2023-04-25T01:36:37;5.33;;;4.00;;
18532;SDS011;9396;51.510;11.934;2023-04-25T01:39:05;8.63;;;4.10;;
18532;SDS011;9396;51.510;11.934;2023-04-25T01:41:33;4.30;;;3.47;;
18532;SDS011;9396;51.510;11.934;2023-04-25T01:44:00;6.53;;;3.70;;
18532;SDS011;9396;51.510;11.934;2023-04-25T01:46:27;4.50;;;3.50;;
18532;SDS011;9396;51.510;11.934;2023-04-25T01:48:54;5.73;;;3.33;;
18532;SDS011;9396;51.510;11.934;2023-04-25T01:51:21;6.80;;;4.10;;
18532;SDS011;9396;51.510;11.934;2023-04-25T01:53:48;7.20;;;3.97;;
18532;SDS011;9396;51.510;11.934;2023-04-25T01:56:16;4.73;;;3.27;;
18532;SDS011;9396;51.510;11.934;2023-04-25T01:58:45;8.80;;;3.80;;
18532;SDS011;9396;51.510;11.934;2023-04-25T02:01:12;5.97;;;3.37;;
18532;SDS011;9396;51.510;11.934;2023-04-25T02:03:39;7.30;;;3.67;;
18532;SDS011;9396;51.510;11.934;2023-04-25T02:06:06;4.80;;;3.17;;
18532;SDS011;9396;51.510;11.934;2023-04-25T02:08:32;7.03;;;3.63;;
18532;SDS011;9396;51.510;11.934;2023-04-25T02:10:59;6.60;;;3.40;;
18532;SDS011;9396;51.510;11.934;2023-04-25T02:13:27;8.37;;;3.50;;
18532;SDS011;9396;51.510;11.934;2023-04-25T02:15:53;7.23;;;3.50;;
18532;SDS011;9396;51.510;11.934;2023-04-25T02:18:20;7.73;;;3.67;;
18532;SDS011;9396;51.510;11.934;2023-04-25T02:20:47;5.70;;;3.37;;
18532;SDS011;9396;51.510;11.934;2023-04-25T02:23:13;5.73;;;3.30;;
18532;SDS011;9396;51.510;11.934;2023-04-25T02:25:40;6.77;;;3.40;;
18532;SDS011;9396;51.510;11.934;2023-04-25T02:28:07;4.27;;;3.83;;
18532;SDS011;9396;51.510;11.934;2023-04-25T02:30:35;5.90;;;3.73;;
18532;SDS011;9396;51.510;11.934;2023-04-25T02:33:02;5.23;;;3.30;;
18532;SDS011;9396;51.510;11.934;2023-04-25T02:35:29;7.67;;;4.57;;
18532;SDS011;9396;51.510;11.934;2023-04-25T02:37:55;8.60;;;3.83;;
18532;SDS011;9396;51.510;11.934;2023-04-25T02:40:22;5.83;;;4.10;;
18532;SDS011;9396;51.510;11.934;2023-04-25T02:42:49;5.83;;;3.63;;
18532;SDS011;9396;51.510;11.934;2023-04-25T02:45:16;9.47;;;4.27;;
18532;SDS011;9396;51.510;11.934;2023-04-25T02:47:44;8.13;;;3.77;;
18532;SDS011;9396;51.510;11.934;2023-04-25T02:50:11;6.30;;;3.80;;
18532;SDS011;9396;51.510;11.934;2023-04-25T02:52:37;4.90;;;3.73;;
18532;SDS011;9396;51.510;11.934;2023-04-25T02:55:04;6.37;;;4.10;;
18532;SDS011;9396;51.510;11.934;2023-04-25T02:57:31;7.43;;;4.10;;
18532;SDS011;9396;51.510;11.934;2023-04-25T02:59:58;8.00;;;3.83;;
18532;SDS011;9396;51.510;11.934;2023-04-25T03:02:25;7.00;;;3.70;;
18532;SDS011;9396;51.510;11.934;2023-04-25T03:04:53;7.60;;;3.50;;
18532;SDS011;9396;51.510;11.934;2023-04-25T03:07:19;7.07;;;3.40;;
18532;SDS011;9396;51.510;11.934;2023-04-25T03:09:46;5.93;;;3.13;;
18532;SDS011;9396;51.510;11.934;2023-04-25T03:12:13;11.90;;;5.53;;
18532;SDS011;9396;51.510;11.934;2023-04-25T03:14:39;7.00;;;4.07;;
18532;SDS011;9396;51.510;11.934;2023-04-25T03:17:06;6.10;;;3.47;;
18532;SDS011;9396;51.510;11.934;2023-04-25T03:19:32;7.03;;;3.70;;
18532;SDS011;9396;51.510;11.934;2023-04-25T03:22:00;9.67;;;4.00;;
18532;SDS011;9396;51.510;11.934;2023-04-25T03:24:28;7.47;;;4.00;;
18532;SDS011;9396;51.510;11.934;2023-04-25T03:26:55;7.40;;;3.70;;
18532;SDS011;9396;51.510;11.934;2023-04-25T03:29:22;6.47;;;3.10;;
18532;SDS011;9396;51.510;11.934;2023-04-25T03:31:51;8.90;;;3.73;;
18532;SDS011;9396;51.510;11.934;2023-04-25T03:34:18;7.10;;;3.63;;
18532;SDS011;9396;51.510;11.934;2023-04-25T03:36:46;11.20;;;3.63;;
18532;SDS011;9396;51.510;11.934;2023-04-25T03:39:14;11.47;;;4.10;;
18532;SDS011;9396;51.510;11.934;2023-04-25T03:41:41;7.27;;;3.57;;
18532;SDS011;9396;51.510;11.934;2023-04-25T03:44:07;7.43;;;3.57;;
18532;SDS011;9396;51.510;11.934;2023-04-25T03:46:34;8.77;;;4.47;;
18532;SDS011;9396;51.510;11.934;2023-04-25T03:49:01;5.87;;;3.83;;
18532;SDS011;9396;51.510;11.934;2023-04-25T03:51:27;10.03;;;4.10;;
18532;SDS011;9396;51.510;11.934;2023-04-25T03:53:54;8.00;;;3.70;;
18532;SDS011;9396;51.510;11.934;2023-04-25T03:56:22;9.33;;;3.67;;
18532;SDS011;9396;51.510;11.934;2023-04-25T03:58:48;10.60;;;3.67;;
18532;SDS011;9396;51.510;11.934;2023-04-25T04:01:15;8.63;;;3.63;;
18532;SDS011;9396;51.510;11.934;2023-04-25T04:03:42;7.50;;;3.77;;
18532;SDS011;9396;51.510;11.934;2023-04-25T04:06:08;8.93;;;4.07;;
18532;SDS011;9396;51.510;11.934;2023-04-25T04:08:38;12.50;;;3.50;;
18532;SDS011;9396;51.510;11.934;2023-04-25T04:11:04;9.23;;;3.60;;
18532;SDS011;9396;51.510;11.934;2023-04-25T04:13:32;8.83;;;4.00;;
18532;SDS011;9396;51.510;11.934;2023-04-25T04:15:59;6.97;;;3.30;;
18532;SDS011;9396;51.510;11.934;2023-04-25T04:18:26;12.83;;;3.80;;
18532;SDS011;9396;51.510;11.934;2023-04-25T04:20:52;9.13;;;4.50;;
18532;SDS011;9396;51.510;11.934;2023-04-25T04:23:19;8.53;;;3.97;;
18532;SDS011;9396;51.510;11.934;2023-04-25T04:25:47;8.93;;;4.53;;
18532;SDS011;9396;51.510;11.934;2023-04-25T04:28:14;9.13;;;3.70;;
18532;SDS011;9396;51.510;11.934;2023-04-25T04:30:42;10.27;;;4.13;;
18532;SDS011;9396;51.510;11.934;2023-04-25T04:33:12;22.00;;;4.63;;
18532;SDS011;9396;51.510;11.934;2023-04-25T04:35:40;7.40;;;4.03;;
18532;SDS011;9396;51.510;11.934;2023-04-25T04:38:07;10.03;;;4.20;;
18532;SDS011;9396;51.510;11.934;2023-04-25T04:40:35;7.40;;;3.60;;
18532;SDS011;9396;51.510;11.934;2023-04-25T04:43:02;7.70;;;4.07;;
18532;SDS011;9396;51.510;11.934;2023-04-25T04:45:29;8.93;;;3.97;;
18532;SDS011;9396;51.510;11.934;2023-04-25T04:47:57;10.63;;;3.53;;
18532;SDS011;9396;51.510;11.934;2023-04-25T04:50:24;8.47;;;4.10;;
18532;SDS011;9396;51.510;11.934;2023-04-25T04:52:51;8.57;;;3.70;;
18532;SDS011;9396;51.510;11.934;2023-04-25T04:55:19;10.53;;;3.87;;
18532;SDS011;9396;51.510;11.934;2023-04-25T04:57:46;8.07;;;4.03;;
18532;SDS011;9396;51.510;11.934;2023-04-25T05:00:13;11.33;;;4.47;;
18532;SDS011;9396;51.510;11.934;2023-04-25T05:02:40;8.27;;;4.30;;
18532;SDS011;9396;51.510;11.934;2023-04-25T05:05:08;8.73;;;4.67;;
18532;SDS011;9396;51.510;11.934;2023-04-25T05:07:35;8.20;;;5.20;;
18532;SDS011;9396;51.510;11.934;2023-04-25T05:10:02;10.13;;;4.67;;
18532;SDS011;9396;51.510;11.934;2023-04-25T05:12:29;10.80;;;4.80;;
18532;SDS011;9396;51.510;11.934;2023-04-25T05:14:56;8.17;;;4.43;;
18532;SDS011;9396;51.510;11.934;2023-04-25T05:17:23;12.03;;;4.67;;
18532;SDS011;9396;51.510;11.934;2023-04-25T05:19:50;10.13;;;4.67;;
18532;SDS011;9396;51.510;11.934;2023-04-25T05:22:18;8.03;;;4.43;;
18532;SDS011;9396;51.510;11.934;2023-04-25T05:24:44;8.90;;;4.37;;
18532;SDS011;9396;51.510;11.934;2023-04-25T05:27:11;9.23;;;4.87;;
18532;SDS011;9396;51.510;11.934;2023-04-25T05:29:37;12.73;;;5.63;;
18532;SDS011;9396;51.510;11.934;2023-04-25T05:32:05;7.90;;;5.03;;
18532;SDS011;9396;51.510;11.934;2023-04-25T05:34:32;8.03;;;4.50;;
18532;SDS011;9396;51.510;11.934;2023-04-25T05:36:59;11.43;;;4.73;;
18532;SDS011;9396;51.510;11.934;2023-04-25T05:39:27;9.70;;;5.37;;
18532;SDS011;9396;51.510;11.934;2023-04-25T05:41:54;14.07;;;5.63;;
18532;SDS011;9396;51.510;11.934;2023-04-25T05:44:20;10.77;;;5.23;;
18532;SDS011;9396;51.510;11.934;2023-04-25T05:46:47;9.80;;;5.17;;
18532;SDS011;9396;51.510;11.934;2023-04-25T05:49:14;9.93;;;4.77;;
18532;SDS011;9396;51.510;11.934;2023-04-25T05:51:40;11.10;;;5.17;;
18532;SDS011;9396;51.510;11.934;2023-04-25T05:54:07;9.27;;;5.10;;
18532;SDS011;9396;51.510;11.934;2023-04-25T05:56:36;13.93;;;5.40;;
18532;SDS011;9396;51.510;11.934;2023-04-25T05:59:02;10.17;;;4.97;;
18532;SDS011;9396;51.510;11.934;2023-04-25T06:01:29;10.07;;;5.47;;
18532;SDS011;9396;51.510;11.934;2023-04-25T06:03:56;15.33;;;5.20;;
18532;SDS011;9396;51.510;11.934;2023-04-25T06:06:22;13.37;;;5.50;;
18532;SDS011;9396;51.510;11.934;2023-04-25T06:08:49;7.47;;;4.63;;
18532;SDS011;9396;51.510;11.934;2023-04-25T06:11:16;8.90;;;4.80;;
18532;SDS011;9396;51.510;11.934;2023-04-25T06:13:44;10.30;;;5.40;;
18532;SDS011;9396;51.510;11.934;2023-04-25T06:16:10;10.13;;;4.87;;
18532;SDS011;9396;51.510;11.934;2023-04-25T06:18:37;7.27;;;3.97;;
18532;SDS011;9396;51.510;11.934;2023-04-25T06:21:04;9.80;;;5.43;;
18532;SDS011;9396;51.510;11.934;2023-04-25T06:23:30;8.00;;;5.23;;
18532;SDS011;9396;51.510;11.934;2023-04-25T06:25:57;11.47;;;5.17;;
18532;SDS011;9396;51.510;11.934;2023-04-25T06:28:23;10.50;;;5.53;;
18532;SDS011;9396;51.510;11.934;2023-04-25T06:30:51;8.13;;;5.53;;
18532;SDS011;9396;51.510;11.934;2023-04-25T06:33:18;11.13;;;5.80;;
18532;SDS011;9396;51.510;11.934;2023-04-25T06:35:45;9.23;;;5.40;;
18532;SDS011;9396;51.510;11.934;2023-04-25T06:38:11;7.93;;;5.13;;
18532;SDS011;9396;51.510;11.934;2023-04-25T06:40:38;14.67;;;6.00;;
18532;SDS011;9396;51.510;11.934;2023-04-25T06:43:05;11.07;;;5.33;;
18532;SDS011;9396;51.510;11.934;2023-04-25T06:45:31;9.87;;;5.57;;
18532;SDS011;9396;51.510;11.934;2023-04-25T06:47:59;10.13;;;5.83;;
18532;SDS011;9396;51.510;11.934;2023-04-25T06:50:26;11.10;;;5.90;;
18532;SDS011;9396;51.510;11.934;2023-04-25T06:52:53;14.13;;;5.67;;
18532;SDS011;9396;51.510;11.934;2023-04-25T06:55:19;7.07;;;3.57;;
18532;SDS011;9396;51.510;11.934;2023-04-25T06:57:46;7.10;;;2.90;;
18532;SDS011;9396;51.510;11.934;2023-04-25T07:00:13;5.27;;;2.40;;
18532;SDS011;9396;51.510;11.934;2023-04-25T07:02:40;6.83;;;2.47;;
18532;SDS011;9396;51.510;11.934;2023-04-25T07:05:09;11.73;;;2.33;;
18532;SDS011;9396;51.510;11.934;2023-04-25T07:07:36;5.37;;;1.97;;
18532;SDS011;9396;51.510;11.934;2023-04-25T07:10:03;6.90;;;1.93;;
18532;SDS011;9396;51.510;11.934;2023-04-25T07:12:30;5.00;;;2.43;;
18532;SDS011;9396;51.510;11.934;2023-04-25T07:14:57;8.50;;;2.10;;
18532;SDS011;9396;51.510;11.934;2023-04-25T07:17:23;6.83;;;2.00;;
18532;SDS011;9396;51.510;11.934;2023-04-25T07:19:50;7.93;;;2.00;;
18532;SDS011;9396;51.510;11.934;2023-04-25T07:22:18;5.67;;;1.73;;
18532;SDS011;9396;51.510;11.934;2023-04-25T07:24:45;8.67;;;2.33;;
18532;SDS011;9396;51.510;11.934;2023-04-25T07:27:13;6.07;;;2.50;;
18532;SDS011;9396;51.510;11.934;2023-04-25T07:29:40;8.07;;;2.00;;
18532;SDS011;9396;51.510;11.934;2023-04-25T07:32:07;10.97;;;2.20;;
18532;SDS011;9396;51.510;11.934;2023-04-25T07:34:35;6.87;;;2.10;;
18532;SDS011;9396;51.510;11.934;2023-04-25T07:37:02;7.20;;;2.37;;
18532;SDS011;9396;51.510;11.934;2023-04-25T07:39:30;11.50;;;2.30;;
18532;SDS011;9396;51.510;11.934;2023-04-25T07:41:57;10.57;;;2.50;;
18532;SDS011;9396;51.510;11.934;2023-04-25T07:44:25;9.83;;;2.63;;
18532;SDS011;9396;51.510;11.934;2023-04-25T07:46:52;12.87;;;2.90;;
18532;SDS011;9396;51.510;11.934;2023-04-25T07:49:18;10.63;;;2.83;;
18532;SDS011;9396;51.510;11.934;2023-04-25T07:51:45;6.90;;;2.23;;
18532;SDS011;9396;51.510;11.934;2023-04-25T07:54:13;13.27;;;2.67;;
18532;SDS011;9396;51.510;11.934;2023-04-25T07:56:42;9.90;;;2.17;;
18532;SDS011;9396;51.510;11.934;2023-04-25T07:59:08;9.07;;;2.87;;
18532;SDS011;9396;51.510;11.934;2023-04-25T08:01:35;10.07;;;2.97;;
18532;SDS011;9396;51.510;11.934;2023-04-25T08:04:02;7.67;;;2.70;;
18532;SDS011;9396;51.510;11.934;2023-04-25T08:06:29;11.53;;;2.53;;
18532;SDS011;9396;51.510;11.934;2023-04-25T08:08:56;12.30;;;2.50;;
18532;SDS011;9396;51.510;11.934;2023-04-25T08:11:23;14.40;;;2.90;;
18532;SDS011;9396;51.510;11.934;2023-04-25T08:13:51;14.93;;;2.53;;
18532;SDS011;9396;51.510;11.934;2023-04-25T08:16:18;8.90;;;3.03;;
18532;SDS011;9396;51.510;11.934;2023-04-25T08:18:44;7.27;;;2.90;;
18532;SDS011;9396;51.510;11.934;2023-04-25T08:21:11;10.43;;;2.77;;
18532;SDS011;9396;51.510;11.934;2023-04-25T08:23:38;11.47;;;3.00;;
18532;SDS011;9396;51.510;11.934;2023-04-25T08:26:05;18.70;;;3.73;;
18532;SDS011;9396;51.510;11.934;2023-04-25T08:28:32;13.63;;;3.10;;
18532;SDS011;9396;51.510;11.934;2023-04-25T08:31:00;12.03;;;3.00;;
18532;SDS011;9396;51.510;11.934;2023-04-25T08:33:26;14.97;;;3.20;;
18532;SDS011;9396;51.510;11.934;2023-04-25T08:35:53;14.57;;;3.17;;
18532;SDS011;9396;51.510;11.934;2023-04-25T08:38:20;15.27;;;3.40;;
18532;SDS011;9396;51.510;11.934;2023-04-25T08:40:48;12.00;;;3.47;;
18532;SDS011;9396;51.510;11.934;2023-04-25T08:43:18;12.10;;;3.47;;
18532;SDS011;9396;51.510;11.934;2023-04-25T08:45:45;12.50;;;3.40;;
18532;SDS011;9396;51.510;11.934;2023-04-25T08:48:15;15.90;;;4.57;;
18532;SDS011;9396;51.510;11.934;2023-04-25T08:50:44;13.80;;;3.50;;
18532;SDS011;9396;51.510;11.934;2023-04-25T08:53:15;11.60;;;3.60;;
18532;SDS011;9396;51.510;11.934;2023-04-25T08:55:44;13.90;;;3.80;;
18532;SDS011;9396;51.510;11.934;2023-04-25T08:58:12;17.83;;;3.90;;
18532;SDS011;9396;51.510;11.934;2023-04-25T09:00:39;16.27;;;4.00;;
18532;SDS011;9396;51.510;11.934;2023-04-25T09:03:06;17.50;;;4.50;;
18532;SDS011;9396;51.510;11.934;2023-04-25T09:05:34;13.07;;;3.97;;
18532;SDS011;9396;51.510;11.934;2023-04-25T09:08:03;24.23;;;4.57;;
18532;SDS011;9396;51.510;11.934;2023-04-25T09:10:29;14.97;;;4.27;;
18532;SDS011;9396;51.510;11.934;2023-04-25T09:13:01;10.33;;;4.07;;
18532;SDS011;9396;51.510;11.934;2023-04-25T09:15:29;13.63;;;3.93;;
18532;SDS011;9396;51.510;11.934;2023-04-25T09:17:56;14.20;;;4.20;;
18532;SDS011;9396;51.510;11.934;2023-04-25T09:20:23;12.53;;;4.03;;
18532;SDS011;9396;51.510;11.934;2023-04-25T09:23:02;12.07;;;3.80;;
18532;SDS011;9396;51.510;11.934;2023-04-25T09:25:33;17.70;;;5.00;;
18532;SDS011;9396;51.510;11.934;2023-04-25T09:28:03;9.23;;;4.10;;
18532;SDS011;9396;51.510;11.934;2023-04-25T09:30:31;15.90;;;3.90;;
18532;SDS011;9396;51.510;11.934;2023-04-25T09:33:03;12.70;;;4.27;;
18532;SDS011;9396;51.510;11.934;2023-04-25T09:35:32;9.27;;;3.77;;
18532;SDS011;9396;51.510;11.934;2023-04-25T09:38:07;10.60;;;4.10;;
18532;SDS011;9396;51.510;11.934;2023-04-25T09:40:38;12.10;;;4.20;;
18532;SDS011;9396;51.510;11.934;2023-04-25T09:43:08;10.50;;;3.90;;
18532;SDS011;9396;51.510;11.934;2023-04-25T09:45:40;8.90;;;3.50;;
18532;SDS011;9396;51.510;11.934;2023-04-25T09:48:10;9.60;;;3.17;;
18532;SDS011;9396;51.510;11.934;2023-04-25T09:50:37;11.23;;;3.60;;
18532;SDS011;9396;51.510;11.934;2023-04-25T09:53:04;11.73;;;4.20;;
18532;SDS011;9396;51.510;11.934;2023-04-25T09:55:33;10.87;;;3.43;;
18532;SDS011;9396;51.510;11.934;2023-04-25T09:58:03;13.13;;;3.60;;
18532;SDS011;9396;51.510;11.934;2023-04-25T10:00:30;10.67;;;3.27;;
18532;SDS011;9396;51.510;11.934;2023-04-25T10:02:59;11.13;;;3.40;;
18532;SDS011;9396;51.510;11.934;2023-04-25T10:05:28;10.93;;;3.23;;
18532;SDS011;9396;51.510;11.934;2023-04-25T10:07:58;12.63;;;3.00;;
18532;SDS011;9396;51.510;11.934;2023-04-25T10:10:27;14.93;;;3.60;;
18532;SDS011;9396;51.510;11.934;2023-04-25T10:12:59;11.20;;;3.17;;
18532;SDS011;9396;51.510;11.934;2023-04-25T10:15:26;8.93;;;3.10;;
18532;SDS011;9396;51.510;11.934;2023-04-25T10:17:54;10.63;;;4.17;;
18532;SDS011;9396;51.510;11.934;2023-04-25T10:20:22;12.30;;;4.57;;
18532;SDS011;9396;51.510;11.934;2023-04-25T10:22:49;11.20;;;4.10;;
18532;SDS011;9396;51.510;11.934;2023-04-25T10:25:21;12.10;;;4.20;;
18532;SDS011;9396;51.510;11.934;2023-04-25T10:27:49;10.60;;;3.87;;
18532;SDS011;9396;51.510;11.934;2023-04-25T10:30:18;11.87;;;4.27;;
18532;SDS011;9396;51.510;11.934;2023-04-25T10:32:45;14.33;;;4.00;;
18532;SDS011;9396;51.510;11.934;2023-04-25T10:35:15;14.37;;;3.80;;
18532;SDS011;9396;51.510;11.934;2023-04-25T10:37:56;13.03;;;4.00;;
18532;SDS011;9396;51.510;11.934;2023-04-25T10:40:23;8.73;;;3.30;;
18532;SDS011;9396;51.510;11.934;2023-04-25T10:42:51;17.23;;;3.67;;
18532;SDS011;9396;51.510;11.934;2023-04-25T10:45:19;15.23;;;2.87;;
18532;SDS011;9396;51.510;11.934;2023-04-25T10:47:46;13.93;;;3.37;;
18532;SDS011;9396;51.510;11.934;2023-04-25T10:50:14;14.80;;;3.00;;
18532;SDS011;9396;51.510;11.934;2023-04-25T10:52:41;7.77;;;2.80;;
18532;SDS011;9396;51.510;11.934;2023-04-25T10:55:08;9.60;;;2.47;;
18532;SDS011;9396;51.510;11.934;2023-04-25T10:57:39;5.87;;;2.30;;
18532;SDS011;9396;51.510;11.934;2023-04-25T11:00:11;7.63;;;2.47;;
18532;SDS011;9396;51.510;11.934;2023-04-25T11:02:45;12.07;;;2.10;;
18532;SDS011;9396;51.510;11.934;2023-04-25T11:05:18;13.37;;;2.63;;
18532;SDS011;9396;51.510;11.934;2023-04-25T11:07:49;5.60;;;1.83;;
18532;SDS011;9396;51.510;11.934;2023-04-25T11:10:18;8.97;;;2.13;;
18532;SDS011;9396;51.510;11.934;2023-04-25T11:12:45;10.57;;;2.57;;
18532;SDS011;9396;51.510;11.934;2023-04-25T11:15:12;9.57;;;2.27;;
18532;SDS011;9396;51.510;11.934;2023-04-25T11:17:39;8.13;;;2.30;;
18532;SDS011;9396;51.510;11.934;2023-04-25T11:20:08;5.90;;;1.93;;
18532;SDS011;9396;51.510;11.934;2023-04-25T11:22:37;10.33;;;2.03;;
18532;SDS011;9396;51.510;11.934;2023-04-25T11:25:05;8.13;;;2.30;;
18532;SDS011;9396;51.510;11.934;2023-04-25T11:27:33;10.77;;;2.63;;
18532;SDS011;9396;51.510;11.934;2023-04-25T11:30:09;9.57;;;1.90;;
18532;SDS011;9396;51.510;11.934;2023-04-25T11:32:37;10.73;;;2.43;;
18532;SDS011;9396;51.510;11.934;2023-04-25T11:35:06;5.37;;;2.37;;
18532;SDS011;9396;51.510;11.934;2023-04-25T11:37:34;9.67;;;2.20;;
18532;SDS011;9396;51.510;11.934;2023-04-25T11:40:02;10.33;;;2.03;;
18532;SDS011;9396;51.510;11.934;2023-04-25T11:42:31;11.07;;;1.90;;
18532;SDS011;9396;51.510;11.934;2023-04-25T11:44:58;6.70;;;1.93;;
18532;SDS011;9396;51.510;11.934;2023-04-25T11:47:27;8.03;;;2.00;;
18532;SDS011;9396;51.510;11.934;2023-04-25T11:49:55;11.40;;;2.13;;
18532;SDS011;9396;51.510;11.934;2023-04-25T11:52:23;7.37;;;2.13;;
18532;SDS011;9396;51.510;11.934;2023-04-25T11:54:49;8.97;;;2.10;;
18532;SDS011;9396;51.510;11.934;2023-04-25T11:57:18;7.10;;;1.77;;
18532;SDS011;9396;51.510;11.934;2023-04-25T11:59:45;7.50;;;1.87;;
18532;SDS011;9396;51.510;11.934;2023-04-25T12:02:23;11.00;;;1.93;;
18532;SDS011;9396;51.510;11.934;2023-04-25T12:04:51;8.57;;;1.60;;
18532;SDS011;9396;51.510;11.934;2023-04-25T12:07:18;8.00;;;1.77;;
18532;SDS011;9396;51.510;11.934;2023-04-25T12:09:50;4.93;;;1.47;;
18532;SDS011;9396;51.510;11.934;2023-04-25T12:12:18;14.10;;;2.17;;
18532;SDS011;9396;51.510;11.934;2023-04-25T12:14:46;6.33;;;1.63;;
18532;SDS011;9396;51.510;11.934;2023-04-25T12:17:13;3.67;;;1.33;;
18532;SDS011;9396;51.510;11.934;2023-04-25T12:19:40;2.33;;;1.40;;
18532;SDS011;9396;51.510;11.934;2023-04-25T12:22:19;11.20;;;1.60;;
18532;SDS011;9396;51.510;11.934;2023-04-25T12:24:47;7.43;;;1.70;;
18532;SDS011;9396;51.510;11.934;2023-04-25T12:27:15;5.20;;;1.23;;
18532;SDS011;9396;51.510;11.934;2023-04-25T12:29:49;6.00;;;1.70;;
18532;SDS011;9396;51.510;11.934;2023-04-25T12:32:17;5.67;;;1.63;;
18532;SDS011;9396;51.510;11.934;2023-04-25T12:34:44;4.77;;;1.30;;
18532;SDS011;9396;51.510;11.934;2023-04-25T12:37:11;4.17;;;1.50;;
18532;SDS011;9396;51.510;11.934;2023-04-25T12:39:37;6.73;;;2.37;;
18532;SDS011;9396;51.510;11.934;2023-04-25T12:42:06;5.43;;;1.60;;
18532;SDS011;9396;51.510;11.934;2023-04-25T12:44:36;11.20;;;2.00;;
18532;SDS011;9396;51.510;11.934;2023-04-25T12:47:03;4.47;;;1.40;;
18532;SDS011;9396;51.510;11.934;2023-04-25T12:49:30;4.87;;;1.43;;
18532;SDS011;9396;51.510;11.934;2023-04-25T12:51:57;5.37;;;1.33;;
18532;SDS011;9396;51.510;11.934;2023-04-25T12:54:24;4.90;;;2.00;;
18532;SDS011;9396;51.510;11.934;2023-04-25T12:56:51;6.30;;;1.60;;
18532;SDS011;9396;51.510;11.934;2023-04-25T12:59:19;6.70;;;1.77;;
18532;SDS011;9396;51.510;11.934;2023-04-25T13:01:46;5.57;;;1.50;;
18532;SDS011;9396;51.510;11.934;2023-04-25T13:04:12;7.27;;;1.60;;
18532;SDS011;9396;51.510;11.934;2023-04-25T13:06:39;3.37;;;1.47;;
18532;SDS011;9396;51.510;11.934;2023-04-25T13:09:06;4.43;;;1.70;;
18532;SDS011;9396;51.510;11.934;2023-04-25T13:11:33;4.37;;;1.37;;
18532;SDS011;9396;51.510;11.934;2023-04-25T13:14:00;5.07;;;1.60;;
18532;SDS011;9396;51.510;11.934;2023-04-25T13:16:28;4.87;;;1.47;;
18532;SDS011;9396;51.510;11.934;2023-04-25T13:18:55;2.50;;;1.33;;
18532;SDS011;9396;51.510;11.934;2023-04-25T13:21:22;5.23;;;1.20;;
18532;SDS011;9396;51.510;11.934;2023-04-25T13:23:48;4.93;;;1.63;;
18532;SDS011;9396;51.510;11.934;2023-04-25T13:26:15;5.90;;;1.60;;
18532;SDS011;9396;51.510;11.934;2023-04-25T13:28:42;5.03;;;1.70;;
18532;SDS011;9396;51.510;11.934;2023-04-25T13:31:08;7.70;;;1.73;;
18532;SDS011;9396;51.510;11.934;2023-04-25T13:33:36;3.50;;;1.33;;
18532;SDS011;9396;51.510;11.934;2023-04-25T13:36:03;6.00;;;1.70;;
18532;SDS011;9396;51.510;11.934;2023-04-25T13:38:30;5.33;;;1.73;;
18532;SDS011;9396;51.510;11.934;2023-04-25T13:40:57;4.67;;;1.70;;
18532;SDS011;9396;51.510;11.934;2023-04-25T13:43:23;3.60;;;1.50;;
18532;SDS011;9396;51.510;11.934;2023-04-25T13:45:50;3.67;;;1.33;;
18532;SDS011;9396;51.510;11.934;2023-04-25T13:48:17;5.43;;;1.50;;
18532;SDS011;9396;51.510;11.934;2023-04-25T13:50:46;5.10;;;1.53;;
18532;SDS011;9396;51.510;11.934;2023-04-25T13:53:13;5.93;;;1.87;;
18532;SDS011;9396;51.510;11.934;2023-04-25T13:55:39;4.17;;;1.40;;
18532;SDS011;9396;51.510;11.934;2023-04-25T13:58:06;3.03;;;1.27;;
18532;SDS011;9396;51.510;11.934;2023-04-25T14:00:35;10.30;;;1.80;;
18532;SDS011;9396;51.510;11.934;2023-04-25T14:03:03;5.53;;;1.60;;
18532;SDS011;9396;51.510;11.934;2023-04-25T14:05:32;3.47;;;1.40;;
18532;SDS011;9396;51.510;11.934;2023-04-25T14:08:04;8.40;;;1.43;;
18532;SDS011;9396;51.510;11.934;2023-04-25T14:10:32;3.77;;;1.53;;
18532;SDS011;9396;51.510;11.934;2023-04-25T14:12:58;7.00;;;1.73;;
18532;SDS011;9396;51.510;11.934;2023-04-25T14:15:25;5.83;;;1.47;;
18532;SDS011;9396;51.510;11.934;2023-04-25T14:17:52;5.10;;;1.63;;
18532;SDS011;9396;51.510;11.934;2023-04-25T14:20:19;5.17;;;1.70;;
18532;SDS011;9396;51.510;11.934;2023-04-25T14:22:46;4.73;;;1.60;;
18532;SDS011;9396;51.510;11.934;2023-04-25T14:25:14;5.30;;;1.50;;
18532;SDS011;9396;51.510;11.934;2023-04-25T14:27:41;8.20;;;2.00;;
18532;SDS011;9396;51.510;11.934;2023-04-25T14:30:09;6.43;;;1.67;;
18532;SDS011;9396;51.510;11.934;2023-04-25T14:32:37;6.53;;;1.67;;
18532;SDS011;9396;51.510;11.934;2023-04-25T14:35:04;9.10;;;1.87;;
18532;SDS011;9396;51.510;11.934;2023-04-25T14:37:32;5.00;;;1.60;;
18532;SDS011;9396;51.510;11.934;2023-04-25T14:39:58;4.77;;;1.80;;
18532;SDS011;9396;51.510;11.934;2023-04-25T14:42:26;4.97;;;1.70;;
18532;SDS011;9396;51.510;11.934;2023-04-25T14:44:53;6.83;;;1.63;;